createdAt,value
2023-04-23T00:00:49.363Z,5.50
2023-04-23T00:05:52.740Z,5.60
2023-04-23T00:10:56.756Z,5.30
2023-04-23T00:15:59.162Z,5.37
2023-04-23T00:21:01.347Z,5.20
2023-04-23T00:26:05.295Z,5.17
2023-04-23T00:31:07.730Z,4.97
2023-04-23T00:36:10.008Z,5.50
2023-04-23T00:41:14.503Z,4.97
2023-04-23T00:46:17.905Z,5.10
2023-04-23T00:51:21.244Z,4.90
2023-04-23T00:56:25.411Z,5.73
2023-04-23T01:01:27.639Z,5.40
2023-04-23T01:06:30.711Z,5.63
2023-04-23T01:11:34.540Z,5.70
2023-04-23T01:16:36.521Z,6.27
2023-04-23T01:21:40.453Z,5.87
2023-04-23T01:26:44.266Z,6.00
2023-04-23T01:31:47.236Z,5.87
2023-04-23T01:36:50.045Z,6.93
2023-04-23T01:41:54.220Z,6.60
2023-04-23T01:46:56.349Z,8.13
2023-04-23T01:51:58.424Z,6.80
2023-04-23T01:57:01.927Z,6.47
2023-04-23T02:02:03.804Z,6.70
2023-04-23T02:07:05.781Z,6.87
2023-04-23T02:12:09.167Z,6.33
2023-04-23T02:17:11.147Z,6.10
2023-04-23T02:22:13.351Z,6.30
2023-04-23T02:27:16.793Z,6.93
2023-04-23T02:32:18.567Z,6.63
2023-04-23T02:37:20.780Z,7.07
2023-04-23T02:42:24.559Z,6.77
2023-04-23T02:47:26.735Z,7.63
2023-04-23T02:52:28.934Z,7.87
2023-04-23T02:57:32.791Z,7.20
2023-04-23T03:02:35.142Z,7.70
2023-04-23T03:07:37.495Z,6.90
2023-04-23T03:12:40.552Z,6.97
2023-04-23T03:17:42.729Z,7.77
2023-04-23T03:22:44.852Z,6.67
2023-04-23T03:27:47.892Z,7.40
2023-04-23T03:32:50.625Z,7.53
2023-04-23T03:37:53.136Z,7.40
2023-04-23T03:42:56.684Z,7.77
2023-04-23T03:47:58.701Z,7.27
2023-04-23T03:53:01.205Z,8.07
2023-04-23T03:58:04.247Z,7.57
2023-04-23T04:03:06.467Z,6.90
2023-04-23T04:08:08.592Z,7.57
2023-04-23T04:13:12.110Z,6.67
2023-04-23T04:18:14.254Z,7.23
2023-04-23T04:23:16.488Z,7.93
2023-04-23T04:28:19.995Z,9.03
2023-04-23T04:33:22.149Z,7.07
2023-04-23T04:38:24.284Z,7.13
2023-04-23T04:43:27.787Z,7.67
2023-04-23T04:48:29.900Z,7.47
2023-04-23T04:53:31.954Z,7.87
2023-04-23T04:58:35.499Z,7.80
2023-04-23T05:03:37.891Z,7.50
2023-04-23T05:08:40.175Z,6.13
2023-04-23T05:13:44.323Z,6.60
2023-04-23T05:18:46.394Z,6.50
2023-04-23T05:23:48.743Z,6.57
2023-04-23T05:28:52.074Z,5.90
2023-04-23T05:33:53.937Z,5.90
2023-04-23T05:38:55.576Z,6.30
2023-04-23T05:43:59.187Z,6.23
2023-04-23T05:49:01.590Z,6.13
2023-04-23T05:54:03.752Z,7.07
2023-04-23T05:59:07.218Z,6.37
2023-04-23T06:04:09.098Z,6.70
2023-04-23T06:09:11.162Z,6.77
2023-04-23T06:14:14.207Z,6.47
2023-04-23T06:19:16.360Z,5.53
2023-04-23T06:24:18.058Z,5.50
2023-04-23T06:29:21.516Z,5.53
2023-04-23T06:34:23.616Z,5.83
2023-04-23T06:39:25.373Z,5.87
2023-04-23T06:44:29.102Z,5.43
2023-04-23T06:49:31.304Z,6.33
2023-04-23T06:54:32.976Z,5.90
2023-04-23T06:59:36.072Z,6.37
2023-04-23T07:04:37.896Z,6.50
2023-04-23T07:09:40.014Z,5.80
2023-04-23T07:14:43.516Z,5.73
2023-04-23T07:19:45.884Z,5.67
2023-04-23T07:24:47.674Z,5.73
2023-04-23T07:29:51.737Z,6.03
2023-04-23T07:34:53.977Z,5.93
2023-04-23T07:39:56.245Z,5.47
2023-04-23T07:45:00.010Z,5.87
2023-04-23T07:50:01.681Z,6.10
2023-04-23T07:55:04.296Z,6.00
2023-04-23T08:00:09.075Z,6.03
2023-04-23T08:05:11.626Z,6.30
2023-04-23T08:10:13.845Z,5.70
2023-04-23T08:15:17.166Z,5.83
2023-04-23T08:20:19.109Z,5.43
2023-04-23T08:25:21.129Z,5.50
2023-04-23T08:30:24.629Z,4.70
2023-04-23T08:35:26.832Z,4.43
2023-04-23T08:40:31.241Z,5.37
2023-04-23T08:45:36.927Z,6.47
2023-04-23T08:50:42.951Z,5.63
2023-04-23T08:55:46.171Z,4.93
2023-04-23T09:00:49.656Z,4.40
2023-04-23T09:05:51.899Z,4.83
2023-04-23T09:10:57.781Z,4.90
2023-04-23T09:16:01.392Z,3.77
2023-04-23T09:21:04.728Z,3.37
2023-04-23T09:26:07.377Z,3.10
2023-04-23T09:31:11.038Z,2.90
2023-04-23T09:36:15.492Z,2.93
2023-04-23T09:41:20.830Z,3.50
2023-04-23T09:46:39.167Z,3.33
2023-04-23T09:51:42.529Z,4.20
2023-04-23T09:56:48.820Z,4.03
2023-04-23T10:01:53.003Z,6.30
2023-04-23T10:12:00.865Z,6.57
2023-04-23T10:17:04.909Z,6.50
2023-04-23T10:32:30.651Z,8.00
2023-04-23T10:37:33.431Z,6.80
2023-04-23T10:42:35.688Z,7.23
2023-04-23T10:47:38.957Z,7.93
2023-04-23T10:52:43.254Z,4.13
2023-04-23T10:58:02.915Z,3.47
2023-04-23T11:03:26.488Z,3.50
2023-04-23T11:08:29.546Z,3.87
2023-04-23T11:13:31.239Z,3.53
2023-04-23T11:18:55.140Z,4.50
2023-04-23T11:23:57.381Z,3.70
2023-04-23T11:28:59.596Z,3.17
2023-04-23T11:34:03.549Z,2.27
2023-04-23T11:39:05.270Z,2.63
2023-04-23T11:44:07.136Z,1.90
2023-04-23T11:49:10.591Z,1.53
2023-04-23T11:54:13.920Z,1.17
2023-04-23T11:59:15.717Z,1.20
2023-04-23T12:04:21.012Z,1.30
2023-04-23T12:09:24.769Z,1.67
2023-04-23T12:14:28.684Z,2.17
2023-04-23T12:19:31.992Z,2.27
2023-04-23T12:24:46.938Z,2.50
2023-04-23T12:29:49.148Z,2.57
2023-04-23T12:34:56.143Z,2.87
2023-04-23T12:39:58.322Z,2.43
2023-04-23T12:45:06.393Z,1.80
2023-04-23T12:50:11.217Z,1.93
2023-04-23T12:55:13.323Z,1.70
2023-04-23T13:00:15.928Z,1.57
2023-04-23T13:05:18.972Z,2.43
2023-04-23T13:10:20.902Z,1.70
2023-04-23T13:15:22.660Z,1.80
2023-04-23T13:20:26.166Z,1.80
2023-04-23T13:25:28.259Z,2.17
2023-04-23T13:30:30.522Z,1.53
2023-04-23T13:35:33.623Z,1.70
2023-04-23T13:40:36.280Z,1.87
2023-04-23T13:45:38.062Z,1.70
2023-04-23T13:50:41.522Z,1.40
2023-04-23T13:55:43.282Z,1.93
2023-04-23T14:00:45.488Z,1.40
2023-04-23T14:05:49.026Z,1.40
2023-04-23T14:10:51.610Z,1.77
2023-04-23T14:15:53.909Z,1.50
2023-04-23T14:20:57.208Z,1.50
2023-04-23T14:26:04.429Z,1.20
2023-04-23T14:31:07.342Z,1.35
2023-04-23T14:36:10.648Z,1.40
2023-04-23T14:41:12.403Z,1.17
2023-04-23T14:46:14.912Z,1.45
2023-04-23T14:51:18.273Z,1.33
2023-04-23T14:56:20.245Z,1.40
2023-04-23T15:01:22.113Z,1.38
2023-04-23T15:06:25.583Z,1.30
2023-04-23T15:11:27.414Z,1.20
2023-04-23T15:16:40.446Z,1.10
2023-04-23T15:21:51.050Z,1.20
2023-04-23T15:26:53.217Z,1.02
2023-04-23T15:31:55.609Z,2.05
2023-04-23T15:36:59.203Z,1.47
2023-04-23T15:42:00.886Z,1.23
2023-04-23T15:47:03.079Z,2.33
2023-04-23T15:52:06.938Z,1.60
2023-04-23T15:57:08.957Z,1.43
2023-04-23T16:02:11.078Z,2.00
2023-04-23T16:07:14.606Z,1.10
2023-04-23T16:12:16.612Z,1.43
2023-04-23T16:17:18.840Z,1.57
2023-04-23T16:22:22.388Z,1.37
2023-04-23T16:27:24.687Z,1.20
2023-04-23T16:32:26.450Z,1.30
2023-04-23T16:37:29.611Z,1.40
2023-04-23T16:42:31.969Z,1.73
2023-04-23T16:47:34.168Z,1.50
2023-04-23T16:52:37.774Z,1.80
2023-04-23T16:57:39.592Z,1.97
2023-04-23T17:02:42.051Z,1.50
2023-04-23T17:07:45.739Z,1.40
2023-04-23T17:12:47.925Z,1.50
2023-04-23T17:17:49.778Z,1.80
2023-04-23T17:22:53.198Z,1.80
2023-04-23T17:27:54.901Z,1.20
2023-04-23T17:32:56.731Z,1.27
2023-04-23T17:38:00.287Z,1.47
2023-04-23T17:43:02.005Z,1.50
2023-04-23T17:48:04.542Z,1.40
2023-04-23T17:53:08.125Z,2.23
2023-04-23T17:58:09.943Z,1.53
2023-04-23T18:03:11.943Z,1.73
2023-04-23T18:08:15.232Z,1.30
2023-04-23T18:13:17.643Z,1.60
2023-04-23T18:18:20.070Z,1.80
2023-04-23T18:23:23.577Z,2.10
2023-04-23T18:28:25.849Z,1.57
2023-04-23T18:33:31.253Z,1.80
2023-04-23T18:38:42.729Z,1.70
2023-04-23T18:43:44.799Z,1.80
2023-04-23T18:48:51.683Z,1.97
2023-04-23T18:53:55.722Z,1.77
2023-04-23T18:58:57.567Z,1.87
2023-04-23T19:03:59.871Z,1.90
2023-04-23T19:09:03.240Z,2.10
2023-04-23T19:14:05.246Z,2.20
2023-04-23T19:19:07.233Z,2.10
2023-04-23T19:24:10.937Z,2.33
2023-04-23T19:29:13.147Z,2.50
2023-04-23T19:34:15.188Z,2.57
2023-04-23T19:39:18.452Z,2.30
2023-04-23T19:44:20.218Z,2.63
2023-04-23T19:49:22.037Z,2.60
2023-04-23T19:54:25.973Z,2.70
2023-04-23T19:59:27.738Z,2.87
2023-04-23T20:04:29.679Z,2.37
2023-04-23T20:09:33.268Z,2.47
2023-04-23T20:14:35.037Z,2.90
2023-04-23T20:19:37.495Z,3.30
2023-04-23T20:24:40.603Z,3.20
2023-04-23T20:29:42.496Z,3.00
2023-04-23T20:34:44.567Z,3.03
2023-04-23T20:39:47.707Z,2.77
2023-04-23T20:44:49.354Z,3.03
2023-04-23T20:49:51.199Z,3.03
2023-04-23T20:54:54.652Z,2.70
2023-04-23T20:59:56.794Z,2.93
2023-04-23T21:04:58.609Z,2.57
2023-04-23T21:10:01.732Z,3.13
2023-04-23T21:15:04.525Z,3.27
2023-04-23T21:20:07.919Z,2.73
2023-04-23T21:25:11.640Z,3.10
2023-04-23T21:30:20.366Z,3.03
2023-04-23T21:35:22.446Z,2.77
2023-04-23T21:40:26.135Z,3.30
2023-04-23T21:45:28.071Z,3.07
2023-04-23T21:50:30.865Z,3.53
2023-04-23T21:55:34.658Z,3.20
2023-04-23T22:00:37.068Z,2.90
2023-04-23T22:05:38.821Z,2.90
2023-04-23T22:10:41.893Z,3.20
2023-04-23T22:15:43.872Z,2.73
2023-04-23T22:20:45.646Z,3.00
2023-04-23T22:25:49.170Z,3.27
2023-04-23T22:30:50.888Z,3.37
2023-04-23T22:35:52.673Z,3.30
2023-04-23T22:40:55.757Z,3.23
2023-04-23T22:45:57.557Z,4.00
2023-04-23T22:50:59.272Z,3.57
2023-04-23T22:56:02.830Z,4.10
2023-04-23T23:01:04.756Z,3.80
2023-04-23T23:06:06.538Z,3.47
2023-04-23T23:11:10.020Z,3.43
2023-04-23T23:16:12.030Z,3.20
2023-04-23T23:21:14.260Z,3.53
2023-04-23T23:26:18.045Z,3.43
2023-04-23T23:31:20.313Z,3.33
2023-04-23T23:36:22.151Z,3.73
2023-04-23T23:41:26.141Z,3.33
2023-04-23T23:46:27.942Z,3.47
2023-04-23T23:51:29.845Z,3.23
2023-04-23T23:56:33.284Z,3.30
